sensor_id;sensor_type;location;lat;lon;timestamp;temperature;humidity
28608;DHT22;15802;45.654;13.804;2023-05-19T00:01:56;15.40;99.90
28608;DHT22;15802;45.654;13.804;2023-05-19T00:04:24;15.40;99.90
28608;DHT22;15802;45.654;13.804;2023-05-19T00:06:50;15.40;99.90
28608;DHT22;15802;45.654;13.804;2023-05-19T00:09:18;15.40;99.90
28608;DHT22;15802;45.654;13.804;2023-05-19T00:11:44;15.30;99.90
28608;DHT22;15802;45.654;13.804;2023-05-19T00:14:10;15.40;99.90
28608;DHT22;15802;45.654;13.804;2023-05-19T00:16:36;15.40;99.90
28608;DHT22;15802;45.654;13.804;2023-05-19T00:19:03;15.40;99.90
28608;DHT22;15802;45.654;13.804;2023-05-19T00:21:29;15.30;99.90
28608;DHT22;15802;45.654;13.804;2023-05-19T00:23:55;15.40;99.90
28608;DHT22;15802;45.654;13.804;2023-05-19T00:26:22;15.40;99.90
28608;DHT22;15802;45.654;13.804;2023-05-19T00:28:49;15.30;99.90
28608;DHT22;15802;45.654;13.804;2023-05-19T00:31:15;15.30;99.90
28608;DHT22;15802;45.654;13.804;2023-05-19T00:33:40;15.30;99.90
28608;DHT22;15802;45.654;13.804;2023-05-19T00:36:06;15.30;99.90
28608;DHT22;15802;45.654;13.804;2023-05-19T00:38:33;15.40;99.90
28608;DHT22;15802;45.654;13.804;2023-05-19T00:40:59;15.30;99.90
28608;DHT22;15802;45.654;13.804;2023-05-19T00:43:25;15.30;99.90
28608;DHT22;15802;45.654;13.804;2023-05-19T00:45:51;15.40;99.90
28608;DHT22;15802;45.654;13.804;2023-05-19T00:48:16;15.30;99.90
28608;DHT22;15802;45.654;13.804;2023-05-19T00:50:42;15.30;99.90
28608;DHT22;15802;45.654;13.804;2023-05-19T00:53:08;15.30;99.90
28608;DHT22;15802;45.654;13.804;2023-05-19T00:55:35;15.30;99.90
28608;DHT22;15802;45.654;13.804;2023-05-19T00:58:01;15.30;99.90
28608;DHT22;15802;45.654;13.804;2023-05-19T01:00:28;15.30;99.90
28608;DHT22;15802;45.654;13.804;2023-05-19T01:02:54;15.30;99.90
28608;DHT22;15802;45.654;13.804;2023-05-19T01:05:20;15.30;99.90
28608;DHT22;15802;45.654;13.804;2023-05-19T01:07:46;15.20;99.90
28608;DHT22;15802;45.654;13.804;2023-05-19T01:10:11;15.20;99.90
28608;DHT22;15802;45.654;13.804;2023-05-19T01:12:37;15.30;99.90
28608;DHT22;15802;45.654;13.804;2023-05-19T01:15:06;15.30;99.90
28608;DHT22;15802;45.654;13.804;2023-05-19T01:17:36;15.30;99.90
28608;DHT22;15802;45.654;13.804;2023-05-19T01:20:08;15.20;99.90
28608;DHT22;15802;45.654;13.804;2023-05-19T01:22:39;15.20;99.90
28608;DHT22;15802;45.654;13.804;2023-05-19T01:25:16;15.20;99.90
28608;DHT22;15802;45.654;13.804;2023-05-19T01:27:54;15.10;99.90
28608;DHT22;15802;45.654;13.804;2023-05-19T01:30:29;15.10;99.90
28608;DHT22;15802;45.654;13.804;2023-05-19T01:32:57;15.20;99.90
28608;DHT22;15802;45.654;13.804;2023-05-19T01:35:23;15.10;99.90
28608;DHT22;15802;45.654;13.804;2023-05-19T01:37:51;15.10;99.90
28608;DHT22;15802;45.654;13.804;2023-05-19T01:40:17;15.10;99.90
28608;DHT22;15802;45.654;13.804;2023-05-19T01:42:43;15.10;99.90
28608;DHT22;15802;45.654;13.804;2023-05-19T01:45:10;15.10;99.90
28608;DHT22;15802;45.654;13.804;2023-05-19T01:47:37;15.10;99.90
28608;DHT22;15802;45.654;13.804;2023-05-19T01:50:04;15.20;99.90
28608;DHT22;15802;45.654;13.804;2023-05-19T01:52:30;15.20;99.90
28608;DHT22;15802;45.654;13.804;2023-05-19T01:54:56;15.10;99.90
28608;DHT22;15802;45.654;13.804;2023-05-19T01:57:23;15.10;99.90
28608;DHT22;15802;45.654;13.804;2023-05-19T01:59:57;15.10;99.90
28608;DHT22;15802;45.654;13.804;2023-05-19T02:02:28;15.00;99.90
28608;DHT22;15802;45.654;13.804;2023-05-19T02:04:56;15.00;99.90
28608;DHT22;15802;45.654;13.804;2023-05-19T02:07:25;15.00;99.90
28608;DHT22;15802;45.654;13.804;2023-05-19T02:09:57;15.00;99.90
28608;DHT22;15802;45.654;13.804;2023-05-19T02:12:27;15.00;99.90
28608;DHT22;15802;45.654;13.804;2023-05-19T02:15:01;15.00;99.90
28608;DHT22;15802;45.654;13.804;2023-05-19T02:17:28;15.00;99.90
28608;DHT22;15802;45.654;13.804;2023-05-19T02:19:57;15.00;99.90
28608;DHT22;15802;45.654;13.804;2023-05-19T02:22:23;15.00;99.90
28608;DHT22;15802;45.654;13.804;2023-05-19T02:24:48;14.90;99.90
28608;DHT22;15802;45.654;13.804;2023-05-19T02:27:16;15.00;99.90
28608;DHT22;15802;45.654;13.804;2023-05-19T02:29:41;14.90;99.90
28608;DHT22;15802;45.654;13.804;2023-05-19T02:32:07;14.90;99.90
28608;DHT22;15802;45.654;13.804;2023-05-19T02:34:32;14.90;99.90
28608;DHT22;15802;45.654;13.804;2023-05-19T02:36:58;14.80;99.90
28608;DHT22;15802;45.654;13.804;2023-05-19T02:39:24;14.80;99.90
28608;DHT22;15802;45.654;13.804;2023-05-19T02:41:50;14.80;99.90
28608;DHT22;15802;45.654;13.804;2023-05-19T02:44:16;14.80;99.90
28608;DHT22;15802;45.654;13.804;2023-05-19T02:46:41;14.90;99.90
28608;DHT22;15802;45.654;13.804;2023-05-19T02:49:07;14.90;99.90
28608;DHT22;15802;45.654;13.804;2023-05-19T02:51:33;14.90;99.90
28608;DHT22;15802;45.654;13.804;2023-05-19T02:53:59;14.90;99.90
28608;DHT22;15802;45.654;13.804;2023-05-19T02:56:24;14.90;99.90
28608;DHT22;15802;45.654;13.804;2023-05-19T02:58:50;14.90;99.90
28608;DHT22;15802;45.654;13.804;2023-05-19T03:01:16;14.90;99.90
28608;DHT22;15802;45.654;13.804;2023-05-19T03:03:42;14.90;99.90
28608;DHT22;15802;45.654;13.804;2023-05-19T03:06:10;14.90;99.90
28608;DHT22;15802;45.654;13.804;2023-05-19T03:08:36;14.90;99.90
28608;DHT22;15802;45.654;13.804;2023-05-19T03:11:02;14.90;99.90
28608;DHT22;15802;45.654;13.804;2023-05-19T03:13:28;14.90;99.90
28608;DHT22;15802;45.654;13.804;2023-05-19T03:15:53;14.90;99.90
28608;DHT22;15802;45.654;13.804;2023-05-19T03:18:22;14.90;99.90
28608;DHT22;15802;45.654;13.804;2023-05-19T03:20:49;14.90;99.90
28608;DHT22;15802;45.654;13.804;2023-05-19T03:23:14;14.90;99.90
28608;DHT22;15802;45.654;13.804;2023-05-19T03:25:40;14.80;99.90
28608;DHT22;15802;45.654;13.804;2023-05-19T03:28:06;14.80;99.90
28608;DHT22;15802;45.654;13.804;2023-05-19T03:30:31;14.80;99.90
28608;DHT22;15802;45.654;13.804;2023-05-19T03:32:57;14.80;99.90
28608;DHT22;15802;45.654;13.804;2023-05-19T03:35:26;14.80;99.90
28608;DHT22;15802;45.654;13.804;2023-05-19T03:37:51;14.80;99.90
28608;DHT22;15802;45.654;13.804;2023-05-19T03:40:17;14.80;99.90
28608;DHT22;15802;45.654;13.804;2023-05-19T03:42:45;14.80;99.90
28608;DHT22;15802;45.654;13.804;2023-05-19T03:45:11;14.80;99.90
28608;DHT22;15802;45.654;13.804;2023-05-19T03:47:37;14.80;99.90
28608;DHT22;15802;45.654;13.804;2023-05-19T03:50:02;14.80;99.90
28608;DHT22;15802;45.654;13.804;2023-05-19T03:52:29;14.80;99.90
28608;DHT22;15802;45.654;13.804;2023-05-19T03:54:54;14.90;99.90
28608;DHT22;15802;45.654;13.804;2023-05-19T03:57:22;14.90;99.90
28608;DHT22;15802;45.654;13.804;2023-05-19T03:59:47;14.90;99.90
28608;DHT22;15802;45.654;13.804;2023-05-19T04:02:13;15.00;99.90
28608;DHT22;15802;45.654;13.804;2023-05-19T04:04:39;15.00;99.90
28608;DHT22;15802;45.654;13.804;2023-05-19T04:07:04;15.00;99.90
28608;DHT22;15802;45.654;13.804;2023-05-19T04:09:31;15.00;99.90
28608;DHT22;15802;45.654;13.804;2023-05-19T04:12:00;15.00;99.90
28608;DHT22;15802;45.654;13.804;2023-05-19T04:14:27;15.00;99.90
28608;DHT22;15802;45.654;13.804;2023-05-19T04:16:52;15.00;99.90
28608;DHT22;15802;45.654;13.804;2023-05-19T04:19:18;15.10;99.90
28608;DHT22;15802;45.654;13.804;2023-05-19T04:21:44;15.10;99.90
28608;DHT22;15802;45.654;13.804;2023-05-19T04:24:09;15.10;99.90
28608;DHT22;15802;45.654;13.804;2023-05-19T04:26:35;15.10;99.90
28608;DHT22;15802;45.654;13.804;2023-05-19T04:29:02;15.10;99.90
28608;DHT22;15802;45.654;13.804;2023-05-19T04:31:29;15.20;99.90
28608;DHT22;15802;45.654;13.804;2023-05-19T04:33:54;15.20;99.90
28608;DHT22;15802;45.654;13.804;2023-05-19T04:36:20;15.30;99.90
28608;DHT22;15802;45.654;13.804;2023-05-19T04:38:46;15.30;99.90
28608;DHT22;15802;45.654;13.804;2023-05-19T04:41:12;15.30;99.90
28608;DHT22;15802;45.654;13.804;2023-05-19T04:43:38;15.30;99.90
28608;DHT22;15802;45.654;13.804;2023-05-19T04:46:07;15.30;99.90
28608;DHT22;15802;45.654;13.804;2023-05-19T04:48:34;15.40;99.90
28608;DHT22;15802;45.654;13.804;2023-05-19T04:50:59;15.30;99.90
28608;DHT22;15802;45.654;13.804;2023-05-19T04:53:27;15.30;99.90
28608;DHT22;15802;45.654;13.804;2023-05-19T04:55:52;15.40;99.90
28608;DHT22;15802;45.654;13.804;2023-05-19T04:58:18;15.40;99.90
28608;DHT22;15802;45.654;13.804;2023-05-19T05:00:46;15.40;99.90
28608;DHT22;15802;45.654;13.804;2023-05-19T05:03:12;15.50;99.90
28608;DHT22;15802;45.654;13.804;2023-05-19T05:05:38;15.50;99.90
28608;DHT22;15802;45.654;13.804;2023-05-19T05:08:04;15.60;99.90
28608;DHT22;15802;45.654;13.804;2023-05-19T05:10:30;15.50;99.90
28608;DHT22;15802;45.654;13.804;2023-05-19T05:12:56;15.50;99.90
28608;DHT22;15802;45.654;13.804;2023-05-19T05:15:21;15.60;99.90
28608;DHT22;15802;45.654;13.804;2023-05-19T05:17:48;15.70;99.90
28608;DHT22;15802;45.654;13.804;2023-05-19T05:20:14;15.70;99.90
28608;DHT22;15802;45.654;13.804;2023-05-19T05:22:40;15.80;99.90
28608;DHT22;15802;45.654;13.804;2023-05-19T05:25:06;15.90;99.90
28608;DHT22;15802;45.654;13.804;2023-05-19T05:27:32;15.90;99.90
28608;DHT22;15802;45.654;13.804;2023-05-19T05:29:58;16.00;99.90
28608;DHT22;15802;45.654;13.804;2023-05-19T05:32:23;16.00;99.90
28608;DHT22;15802;45.654;13.804;2023-05-19T05:34:49;16.00;99.90
28608;DHT22;15802;45.654;13.804;2023-05-19T05:37:15;16.00;99.90
28608;DHT22;15802;45.654;13.804;2023-05-19T05:39:41;16.10;99.90
28608;DHT22;15802;45.654;13.804;2023-05-19T05:42:06;16.10;99.90
28608;DHT22;15802;45.654;13.804;2023-05-19T05:44:33;16.10;99.90
28608;DHT22;15802;45.654;13.804;2023-05-19T05:47:00;16.00;99.90
28608;DHT22;15802;45.654;13.804;2023-05-19T05:49:26;16.00;99.90
28608;DHT22;15802;45.654;13.804;2023-05-19T05:51:52;15.90;99.90
28608;DHT22;15802;45.654;13.804;2023-05-19T05:54:19;16.00;99.90
28608;DHT22;15802;45.654;13.804;2023-05-19T05:56:45;15.90;99.90
28608;DHT22;15802;45.654;13.804;2023-05-19T05:59:11;15.90;99.90
28608;DHT22;15802;45.654;13.804;2023-05-19T06:01:36;16.00;99.90
28608;DHT22;15802;45.654;13.804;2023-05-19T06:04:02;16.00;99.90
28608;DHT22;15802;45.654;13.804;2023-05-19T06:06:28;16.00;99.90
28608;DHT22;15802;45.654;13.804;2023-05-19T06:08:55;16.00;99.90
28608;DHT22;15802;45.654;13.804;2023-05-19T06:11:21;16.10;99.90
28608;DHT22;15802;45.654;13.804;2023-05-19T06:17:10;16.00;99.90
28608;DHT22;15802;45.654;13.804;2023-05-19T06:19:38;16.10;99.90
28608;DHT22;15802;45.654;13.804;2023-05-19T06:22:03;16.10;99.90
28608;DHT22;15802;45.654;13.804;2023-05-19T06:24:29;16.10;99.90
28608;DHT22;15802;45.654;13.804;2023-05-19T06:26:55;16.20;99.90
28608;DHT22;15802;45.654;13.804;2023-05-19T06:29:24;16.30;99.90
28608;DHT22;15802;45.654;13.804;2023-05-19T06:31:56;16.20;99.90
28608;DHT22;15802;45.654;13.804;2023-05-19T06:37:35;16.30;99.90
28608;DHT22;15802;45.654;13.804;2023-05-19T06:40:00;16.30;99.90
28608;DHT22;15802;45.654;13.804;2023-05-19T06:42:26;16.30;99.90
28608;DHT22;15802;45.654;13.804;2023-05-19T06:44:55;16.30;99.90
28608;DHT22;15802;45.654;13.804;2023-05-19T06:47:20;16.40;99.90
28608;DHT22;15802;45.654;13.804;2023-05-19T06:49:46;16.50;99.90
28608;DHT22;15802;45.654;13.804;2023-05-19T06:52:19;16.50;99.90
28608;DHT22;15802;45.654;13.804;2023-05-19T06:54:46;16.70;99.90
28608;DHT22;15802;45.654;13.804;2023-05-19T06:57:11;16.70;99.90
28608;DHT22;15802;45.654;13.804;2023-05-19T06:59:37;16.80;99.90
28608;DHT22;15802;45.654;13.804;2023-05-19T07:02:08;16.80;99.90
28608;DHT22;15802;45.654;13.804;2023-05-19T07:04:34;16.90;99.90
28608;DHT22;15802;45.654;13.804;2023-05-19T07:07:00;16.90;99.90
28608;DHT22;15802;45.654;13.804;2023-05-19T07:09:26;17.00;99.90
28608;DHT22;15802;45.654;13.804;2023-05-19T07:11:52;17.10;99.90
28608;DHT22;15802;45.654;13.804;2023-05-19T07:14:21;17.10;99.90
28608;DHT22;15802;45.654;13.804;2023-05-19T07:16:46;17.00;99.90
28608;DHT22;15802;45.654;13.804;2023-05-19T07:19:12;17.10;99.90
28608;DHT22;15802;45.654;13.804;2023-05-19T07:21:38;17.10;99.90
28608;DHT22;15802;45.654;13.804;2023-05-19T07:24:03;17.10;99.90
28608;DHT22;15802;45.654;13.804;2023-05-19T07:26:32;17.10;99.90
28608;DHT22;15802;45.654;13.804;2023-05-19T07:29:04;17.00;99.90
28608;DHT22;15802;45.654;13.804;2023-05-19T07:31:30;16.90;99.90
28608;DHT22;15802;45.654;13.804;2023-05-19T07:33:58;17.00;99.90
28608;DHT22;15802;45.654;13.804;2023-05-19T07:36:27;16.80;99.90
28608;DHT22;15802;45.654;13.804;2023-05-19T07:38:52;16.80;99.90
28608;DHT22;15802;45.654;13.804;2023-05-19T07:41:20;16.80;99.90
28608;DHT22;15802;45.654;13.804;2023-05-19T07:43:49;16.80;99.90
28608;DHT22;15802;45.654;13.804;2023-05-19T07:46:14;16.80;99.90
28608;DHT22;15802;45.654;13.804;2023-05-19T07:48:40;16.80;99.90
28608;DHT22;15802;45.654;13.804;2023-05-19T07:51:06;16.80;99.90
28608;DHT22;15802;45.654;13.804;2023-05-19T07:54:10;16.90;99.90
28608;DHT22;15802;45.654;13.804;2023-05-19T07:56:37;17.10;99.90
28608;DHT22;15802;45.654;13.804;2023-05-19T07:59:08;17.20;99.90
28608;DHT22;15802;45.654;13.804;2023-05-19T08:01:36;17.20;99.90
28608;DHT22;15802;45.654;13.804;2023-05-19T08:04:05;17.30;99.90
28608;DHT22;15802;45.654;13.804;2023-05-19T08:06:33;17.30;99.90
28608;DHT22;15802;45.654;13.804;2023-05-19T08:08:59;17.30;99.90
28608;DHT22;15802;45.654;13.804;2023-05-19T08:11:26;17.30;99.90
28608;DHT22;15802;45.654;13.804;2023-05-19T08:13:53;17.30;99.90
28608;DHT22;15802;45.654;13.804;2023-05-19T08:16:18;17.30;99.90
28608;DHT22;15802;45.654;13.804;2023-05-19T08:18:44;17.30;99.90
28608;DHT22;15802;45.654;13.804;2023-05-19T08:21:10;17.40;99.90
28608;DHT22;15802;45.654;13.804;2023-05-19T08:23:36;17.40;99.90
28608;DHT22;15802;45.654;13.804;2023-05-19T08:26:03;17.50;99.90
28608;DHT22;15802;45.654;13.804;2023-05-19T08:28:28;17.50;99.90
28608;DHT22;15802;45.654;13.804;2023-05-19T08:30:54;17.50;99.90
28608;DHT22;15802;45.654;13.804;2023-05-19T08:33:20;17.50;99.90
28608;DHT22;15802;45.654;13.804;2023-05-19T08:35:46;17.50;99.90
28608;DHT22;15802;45.654;13.804;2023-05-19T08:38:13;17.60;99.90
28608;DHT22;15802;45.654;13.804;2023-05-19T08:40:41;17.70;99.90
28608;DHT22;15802;45.654;13.804;2023-05-19T08:43:07;17.70;99.90
28608;DHT22;15802;45.654;13.804;2023-05-19T08:45:33;17.70;99.90
28608;DHT22;15802;45.654;13.804;2023-05-19T08:47:59;17.80;99.90
28608;DHT22;15802;45.654;13.804;2023-05-19T08:50:28;17.80;99.90
28608;DHT22;15802;45.654;13.804;2023-05-19T08:53:00;17.60;99.90
28608;DHT22;15802;45.654;13.804;2023-05-19T08:55:34;17.60;99.90
28608;DHT22;15802;45.654;13.804;2023-05-19T08:58:01;17.60;99.90
28608;DHT22;15802;45.654;13.804;2023-05-19T09:00:27;17.60;99.90
28608;DHT22;15802;45.654;13.804;2023-05-19T09:02:54;17.60;99.90
28608;DHT22;15802;45.654;13.804;2023-05-19T09:05:19;17.70;99.90
28608;DHT22;15802;45.654;13.804;2023-05-19T09:07:45;17.80;99.90
28608;DHT22;15802;45.654;13.804;2023-05-19T09:10:12;17.90;99.90
28608;DHT22;15802;45.654;13.804;2023-05-19T09:12:41;17.90;99.90
28608;DHT22;15802;45.654;13.804;2023-05-19T09:15:07;18.00;99.90
28608;DHT22;15802;45.654;13.804;2023-05-19T09:17:33;18.10;99.90
28608;DHT22;15802;45.654;13.804;2023-05-19T09:20:02;18.00;99.90
28608;DHT22;15802;45.654;13.804;2023-05-19T09:22:31;18.10;99.90
28608;DHT22;15802;45.654;13.804;2023-05-19T09:25:00;18.10;99.90
28608;DHT22;15802;45.654;13.804;2023-05-19T09:27:25;18.10;99.90
28608;DHT22;15802;45.654;13.804;2023-05-19T09:29:51;18.10;99.90
28608;DHT22;15802;45.654;13.804;2023-05-19T09:32:24;18.10;99.90
28608;DHT22;15802;45.654;13.804;2023-05-19T09:35:01;18.10;99.90
28608;DHT22;15802;45.654;13.804;2023-05-19T09:37:47;18.10;99.90
28608;DHT22;15802;45.654;13.804;2023-05-19T09:40:14;18.20;99.90
28608;DHT22;15802;45.654;13.804;2023-05-19T09:45:35;18.30;99.90
28608;DHT22;15802;45.654;13.804;2023-05-19T09:48:08;18.40;99.90
28608;DHT22;15802;45.654;13.804;2023-05-19T09:50:34;18.50;99.90
28608;DHT22;15802;45.654;13.804;2023-05-19T09:53:03;18.70;99.90
28608;DHT22;15802;45.654;13.804;2023-05-19T09:55:28;18.90;99.90
28608;DHT22;15802;45.654;13.804;2023-05-19T09:57:54;18.90;99.90
28608;DHT22;15802;45.654;13.804;2023-05-19T10:00:23;18.80;99.90
28608;DHT22;15802;45.654;13.804;2023-05-19T10:02:49;18.90;99.90
28608;DHT22;15802;45.654;13.804;2023-05-19T10:05:16;19.00;99.90
28608;DHT22;15802;45.654;13.804;2023-05-19T10:07:45;19.20;99.90
28608;DHT22;15802;45.654;13.804;2023-05-19T10:10:13;19.00;99.90
28608;DHT22;15802;45.654;13.804;2023-05-19T10:12:39;19.10;99.90
28608;DHT22;15802;45.654;13.804;2023-05-19T10:15:06;19.00;99.90
28608;DHT22;15802;45.654;13.804;2023-05-19T10:17:33;19.10;99.90
28608;DHT22;15802;45.654;13.804;2023-05-19T10:20:00;19.20;99.90
28608;DHT22;15802;45.654;13.804;2023-05-19T10:22:32;19.30;99.90
28608;DHT22;15802;45.654;13.804;2023-05-19T10:24:58;19.40;99.90
28608;DHT22;15802;45.654;13.804;2023-05-19T10:27:23;19.40;99.90
28608;DHT22;15802;45.654;13.804;2023-05-19T10:29:51;19.50;99.90
28608;DHT22;15802;45.654;13.804;2023-05-19T10:32:21;19.70;99.90
28608;DHT22;15802;45.654;13.804;2023-05-19T10:37:38;19.70;99.90
28608;DHT22;15802;45.654;13.804;2023-05-19T10:40:26;19.60;99.90
28608;DHT22;15802;45.654;13.804;2023-05-19T10:45:41;19.50;99.90
28608;DHT22;15802;45.654;13.804;2023-05-19T10:48:09;19.40;99.90
28608;DHT22;15802;45.654;13.804;2023-05-19T10:50:38;19.40;99.90
28608;DHT22;15802;45.654;13.804;2023-05-19T10:53:03;19.30;99.90
28608;DHT22;15802;45.654;13.804;2023-05-19T10:55:45;19.50;99.90
28608;DHT22;15802;45.654;13.804;2023-05-19T10:58:12;19.50;99.90
28608;DHT22;15802;45.654;13.804;2023-05-19T11:00:46;19.80;99.90
28608;DHT22;15802;45.654;13.804;2023-05-19T11:03:19;20.00;99.90
28608;DHT22;15802;45.654;13.804;2023-05-19T11:05:50;20.20;99.90
28608;DHT22;15802;45.654;13.804;2023-05-19T11:08:17;20.40;99.90
28608;DHT22;15802;45.654;13.804;2023-05-19T11:10:55;20.60;99.90
28608;DHT22;15802;45.654;13.804;2023-05-19T11:13:21;20.80;99.90
28608;DHT22;15802;45.654;13.804;2023-05-19T11:15:47;20.80;99.90
28608;DHT22;15802;45.654;13.804;2023-05-19T11:18:14;20.80;99.90
28608;DHT22;15802;45.654;13.804;2023-05-19T11:20:40;20.40;99.90
28608;DHT22;15802;45.654;13.804;2023-05-19T11:23:07;20.10;99.90
28608;DHT22;15802;45.654;13.804;2023-05-19T11:25:49;20.10;99.90
28608;DHT22;15802;45.654;13.804;2023-05-19T11:30:46;20.10;99.90
28608;DHT22;15802;45.654;13.804;2023-05-19T11:33:14;20.40;99.90
28608;DHT22;15802;45.654;13.804;2023-05-19T11:35:44;20.60;99.90
28608;DHT22;15802;45.654;13.804;2023-05-19T11:38:10;20.80;99.90
28608;DHT22;15802;45.654;13.804;2023-05-19T11:40:40;20.70;99.90
28608;DHT22;15802;45.654;13.804;2023-05-19T11:43:06;20.70;99.90
28608;DHT22;15802;45.654;13.804;2023-05-19T11:45:32;20.70;99.90
28608;DHT22;15802;45.654;13.804;2023-05-19T11:47:58;20.80;99.90
28608;DHT22;15802;45.654;13.804;2023-05-19T11:50:24;21.00;99.90
28608;DHT22;15802;45.654;13.804;2023-05-19T11:52:50;21.10;99.90
28608;DHT22;15802;45.654;13.804;2023-05-19T11:55:16;21.10;99.90
28608;DHT22;15802;45.654;13.804;2023-05-19T11:58:02;21.30;99.90
28608;DHT22;15802;45.654;13.804;2023-05-19T12:00:28;21.50;99.90
28608;DHT22;15802;45.654;13.804;2023-05-19T12:02:55;21.50;99.90
28608;DHT22;15802;45.654;13.804;2023-05-19T12:05:21;21.20;99.90
28608;DHT22;15802;45.654;13.804;2023-05-19T12:07:47;21.00;99.90
28608;DHT22;15802;45.654;13.804;2023-05-19T12:10:16;21.10;99.90
28608;DHT22;15802;45.654;13.804;2023-05-19T12:12:44;21.00;99.90
28608;DHT22;15802;45.654;13.804;2023-05-19T12:15:10;20.80;99.90
28608;DHT22;15802;45.654;13.804;2023-05-19T12:17:35;21.00;99.90
28608;DHT22;15802;45.654;13.804;2023-05-19T12:20:01;21.10;99.90
28608;DHT22;15802;45.654;13.804;2023-05-19T12:22:29;21.10;99.90
28608;DHT22;15802;45.654;13.804;2023-05-19T12:24:55;21.10;99.90
28608;DHT22;15802;45.654;13.804;2023-05-19T12:27:22;21.20;99.90
28608;DHT22;15802;45.654;13.804;2023-05-19T12:29:49;21.10;99.90
28608;DHT22;15802;45.654;13.804;2023-05-19T12:32:18;21.20;99.90
28608;DHT22;15802;45.654;13.804;2023-05-19T12:34:44;21.20;99.90
28608;DHT22;15802;45.654;13.804;2023-05-19T12:37:09;21.30;99.90
28608;DHT22;15802;45.654;13.804;2023-05-19T12:39:35;21.60;99.90
28608;DHT22;15802;45.654;13.804;2023-05-19T12:42:03;21.70;99.90
28608;DHT22;15802;45.654;13.804;2023-05-19T12:44:47;21.70;99.90
28608;DHT22;15802;45.654;13.804;2023-05-19T12:47:18;21.70;99.90
28608;DHT22;15802;45.654;13.804;2023-05-19T12:52:29;21.20;99.90
28608;DHT22;15802;45.654;13.804;2023-05-19T12:54:57;20.80;99.90
28608;DHT22;15802;45.654;13.804;2023-05-19T12:57:23;20.90;99.90
28608;DHT22;15802;45.654;13.804;2023-05-19T12:59:49;21.00;99.90
28608;DHT22;15802;45.654;13.804;2023-05-19T13:02:15;20.80;99.90
28608;DHT22;15802;45.654;13.804;2023-05-19T13:04:42;20.90;99.90
28608;DHT22;15802;45.654;13.804;2023-05-19T13:07:08;21.10;99.90
28608;DHT22;15802;45.654;13.804;2023-05-19T13:09:34;21.40;99.90
28608;DHT22;15802;45.654;13.804;2023-05-19T13:12:00;21.80;99.90
28608;DHT22;15802;45.654;13.804;2023-05-19T13:14:26;21.60;99.90
28608;DHT22;15802;45.654;13.804;2023-05-19T13:16:52;21.40;99.90
28608;DHT22;15802;45.654;13.804;2023-05-19T13:19:18;21.30;99.90
28608;DHT22;15802;45.654;13.804;2023-05-19T13:21:44;21.20;99.90
28608;DHT22;15802;45.654;13.804;2023-05-19T13:24:12;20.80;99.90
28608;DHT22;15802;45.654;13.804;2023-05-19T13:26:37;20.50;99.90
28608;DHT22;15802;45.654;13.804;2023-05-19T13:29:03;20.20;99.90
28608;DHT22;15802;45.654;13.804;2023-05-19T13:31:29;20.10;99.90
28608;DHT22;15802;45.654;13.804;2023-05-19T13:33:55;20.40;99.90
28608;DHT22;15802;45.654;13.804;2023-05-19T13:36:20;20.70;99.90
28608;DHT22;15802;45.654;13.804;2023-05-19T13:38:46;20.90;99.90
28608;DHT22;15802;45.654;13.804;2023-05-19T13:41:12;20.80;99.90
28608;DHT22;15802;45.654;13.804;2023-05-19T13:43:38;20.90;99.90
28608;DHT22;15802;45.654;13.804;2023-05-19T13:46:04;20.90;99.90
28608;DHT22;15802;45.654;13.804;2023-05-19T13:48:33;20.70;99.90
28608;DHT22;15802;45.654;13.804;2023-05-19T13:51:06;20.70;99.90
28608;DHT22;15802;45.654;13.804;2023-05-19T13:53:31;20.70;99.90
28608;DHT22;15802;45.654;13.804;2023-05-19T13:55:59;20.50;99.90
28608;DHT22;15802;45.654;13.804;2023-05-19T13:58:27;20.60;99.90
28608;DHT22;15802;45.654;13.804;2023-05-19T14:00:53;20.70;99.90
28608;DHT22;15802;45.654;13.804;2023-05-19T14:03:21;20.70;99.90
28608;DHT22;15802;45.654;13.804;2023-05-19T14:05:47;20.80;99.90
28608;DHT22;15802;45.654;13.804;2023-05-19T14:08:12;20.80;99.90
28608;DHT22;15802;45.654;13.804;2023-05-19T14:10:38;20.40;99.90
28608;DHT22;15802;45.654;13.804;2023-05-19T14:13:04;20.20;99.90
28608;DHT22;15802;45.654;13.804;2023-05-19T14:15:30;20.20;99.90
28608;DHT22;15802;45.654;13.804;2023-05-19T14:17:58;20.30;99.90
28608;DHT22;15802;45.654;13.804;2023-05-19T14:20:24;20.30;99.90
28608;DHT22;15802;45.654;13.804;2023-05-19T14:22:50;20.40;99.90
28608;DHT22;15802;45.654;13.804;2023-05-19T14:25:15;20.30;99.90
28608;DHT22;15802;45.654;13.804;2023-05-19T14:27:41;20.40;99.90
28608;DHT22;15802;45.654;13.804;2023-05-19T14:30:07;20.50;99.90
28608;DHT22;15802;45.654;13.804;2023-05-19T14:32:32;20.60;99.90
28608;DHT22;15802;45.654;13.804;2023-05-19T14:34:58;20.60;99.90
28608;DHT22;15802;45.654;13.804;2023-05-19T14:37:24;20.60;99.90
28608;DHT22;15802;45.654;13.804;2023-05-19T14:39:53;20.50;99.90
28608;DHT22;15802;45.654;13.804;2023-05-19T14:42:18;20.20;99.90
28608;DHT22;15802;45.654;13.804;2023-05-19T14:44:44;19.90;99.90
28608;DHT22;15802;45.654;13.804;2023-05-19T14:47:10;19.80;99.90
28608;DHT22;15802;45.654;13.804;2023-05-19T14:49:36;19.80;99.90
28608;DHT22;15802;45.654;13.804;2023-05-19T14:52:02;19.80;99.90
28608;DHT22;15802;45.654;13.804;2023-05-19T14:54:28;19.90;99.90
28608;DHT22;15802;45.654;13.804;2023-05-19T14:56:53;19.80;99.90
28608;DHT22;15802;45.654;13.804;2023-05-19T14:59:19;19.90;99.90
28608;DHT22;15802;45.654;13.804;2023-05-19T15:01:45;20.00;99.90
28608;DHT22;15802;45.654;13.804;2023-05-19T15:04:11;20.00;99.90
28608;DHT22;15802;45.654;13.804;2023-05-19T15:06:37;20.10;99.90
28608;DHT22;15802;45.654;13.804;2023-05-19T15:09:02;20.10;99.90
28608;DHT22;15802;45.654;13.804;2023-05-19T15:11:28;20.10;99.90
28608;DHT22;15802;45.654;13.804;2023-05-19T15:13:54;20.20;99.90
28608;DHT22;15802;45.654;13.804;2023-05-19T15:16:20;19.80;99.90
28608;DHT22;15802;45.654;13.804;2023-05-19T15:18:45;19.80;99.90
28608;DHT22;15802;45.654;13.804;2023-05-19T15:21:11;19.70;99.90
28608;DHT22;15802;45.654;13.804;2023-05-19T15:23:37;19.60;99.90
28608;DHT22;15802;45.654;13.804;2023-05-19T15:26:02;19.70;99.90
28608;DHT22;15802;45.654;13.804;2023-05-19T15:28:28;19.80;99.90
28608;DHT22;15802;45.654;13.804;2023-05-19T15:30:54;19.70;99.90
28608;DHT22;15802;45.654;13.804;2023-05-19T15:33:19;19.60;99.90
28608;DHT22;15802;45.654;13.804;2023-05-19T15:35:45;19.50;99.90